Search for airport 
image banner adimage banner adimage banner ad
image banner ad

KMHR - Sacramento Mather

Located in Sacramento, United States

ICAO - MHR, IATA - MHR

Data provided by Airmate  

General information

Coordinates: N38°33'19" W121°17'50"
Elevation is 98 feet MSL.
Magnetic variation is 13° East
View others Airports in California

Operational data

Special qualification required
Current time UTC:
Current local time:
Weather
METAR: KMHR 211145Z 14008KT 10SM SKC 16/10 A2981
TAF: KMHR 211120Z 2112/2212 18006KT P6SM SKC FM211800 22012G21KT P6SM SKC FM220500 15010KT P6SM SKC AMD NOT SKED
View NOTAMs / SUP AIP / TFR affecting this airport [VIEW]
Communications frequencies: [VIEW]

Runways:

RWY identifierQFULength (ft)Width (ft)SurfaceLDA (ft)
04R54°11301150OTHER
22L234°11301150OTHER
04L54°6081150ASPH
22R234°6081150ASPH

Airport contact information

Address: Sacramento United States

Satellite view of KMHR